Terminal Aerodrome Forecast
Issued by NWS Bismarck, ND

Home | Current Version | Previous Version | Graphics & Text | Print | Product List | Glossary On
Versions: 1 2 3 4 5 6 7 8 9 10 11 12 13 14 15 16 17 18
000
FTUS43 KBIS 241129
TAFISN
TAF
KISN 241129Z 2412/2512 24008KT P6SM VCTS FEW060CB SCT120
     FM241400 24010KT P6SM BKN050 BKN200
     FM241800 25011KT P6SM VCTS BKN050CB BKN120
     FM250000 28013KT P6SM FEW060 SCT120
     FM250200 27008KT P6SM FEW060 SCT250=

USA.gov is the U.S. government's official web portal to all federal, state and local government web resources and services.